sensor_id;sensor_type;location;lat;lon;timestamp;P1;durP1;ratioP1;P2;durP2;ratioP2
20232;SDS011;37438;55.674;13.074;2022-10-28T00:00:52;11.93;;;5.75;;
20232;SDS011;37438;55.674;13.074;2022-10-28T00:03:57;15.40;;;6.05;;
20232;SDS011;37438;55.674;13.074;2022-10-28T00:07:03;12.07;;;5.75;;
20232;SDS011;37438;55.674;13.074;2022-10-28T00:10:07;13.73;;;6.47;;
20232;SDS011;37438;55.674;13.074;2022-10-28T00:16:18;12.32;;;7.15;;
20232;SDS011;37438;55.674;13.074;2022-10-28T00:19:24;14.88;;;6.50;;
20232;SDS011;37438;55.674;13.074;2022-10-28T00:22:29;14.27;;;6.47;;
20232;SDS011;37438;55.674;13.074;2022-10-28T00:25:33;14.98;;;6.07;;
20232;SDS011;37438;55.674;13.074;2022-10-28T00:28:41;20.65;;;7.28;;
20232;SDS011;37438;55.674;13.074;2022-10-28T00:31:47;18.50;;;6.70;;
20232;SDS011;37438;55.674;13.074;2022-10-28T00:37:56;19.10;;;6.82;;
20232;SDS011;37438;55.674;13.074;2022-10-28T00:41:00;15.90;;;7.03;;
20232;SDS011;37438;55.674;13.074;2022-10-28T00:47:54;10.80;;;6.90;;
20232;SDS011;37438;55.674;13.074;2022-10-28T00:51:03;14.52;;;7.45;;
20232;SDS011;37438;55.674;13.074;2022-10-28T00:54:08;17.83;;;8.93;;
20232;SDS011;37438;55.674;13.074;2022-10-28T00:57:15;12.93;;;7.20;;
20232;SDS011;37438;55.674;13.074;2022-10-28T01:00:22;16.50;;;7.38;;
20232;SDS011;37438;55.674;13.074;2022-10-28T01:03:28;11.07;;;7.32;;
20232;SDS011;37438;55.674;13.074;2022-10-28T01:06:32;24.42;;;9.30;;
20232;SDS011;37438;55.674;13.074;2022-10-28T01:09:37;14.27;;;7.97;;
20232;SDS011;37438;55.674;13.074;2022-10-28T01:23:04;12.80;;;8.13;;
20232;SDS011;37438;55.674;13.074;2022-10-28T01:29:37;16.52;;;9.43;;
20232;SDS011;37438;55.674;13.074;2022-10-28T01:36:19;15.10;;;8.70;;
20232;SDS011;37438;55.674;13.074;2022-10-28T01:39:53;12.82;;;8.30;;
20232;SDS011;37438;55.674;13.074;2022-10-28T01:43:09;17.13;;;9.23;;
20232;SDS011;37438;55.674;13.074;2022-10-28T01:52:55;18.08;;;8.40;;
20232;SDS011;37438;55.674;13.074;2022-10-28T01:56:03;19.88;;;8.23;;
20232;SDS011;37438;55.674;13.074;2022-10-28T01:59:21;19.00;;;8.40;;
20232;SDS011;37438;55.674;13.074;2022-10-28T02:02:31;23.00;;;10.40;;
20232;SDS011;37438;55.674;13.074;2022-10-28T02:05:47;17.00;;;8.35;;
20232;SDS011;37438;55.674;13.074;2022-10-28T02:08:55;18.05;;;8.57;;
20232;SDS011;37438;55.674;13.074;2022-10-28T02:15:32;20.48;;;8.52;;
20232;SDS011;37438;55.674;13.074;2022-10-28T02:19:13;18.33;;;9.82;;
20232;SDS011;37438;55.674;13.074;2022-10-28T02:26:40;20.20;;;8.88;;
20232;SDS011;37438;55.674;13.074;2022-10-28T02:29:25;22.27;;;9.43;;
20232;SDS011;37438;55.674;13.074;2022-10-28T02:32:49;19.17;;;8.02;;
20232;SDS011;37438;55.674;13.074;2022-10-28T02:36:00;18.23;;;9.23;;
20232;SDS011;37438;55.674;13.074;2022-10-28T02:39:11;16.20;;;8.00;;
20232;SDS011;37438;55.674;13.074;2022-10-28T02:42:20;15.65;;;9.05;;
20232;SDS011;37438;55.674;13.074;2022-10-28T02:45:30;17.02;;;8.77;;
20232;SDS011;37438;55.674;13.074;2022-10-28T02:48:39;17.30;;;8.45;;
20232;SDS011;37438;55.674;13.074;2022-10-28T02:51:51;18.92;;;8.77;;
20232;SDS011;37438;55.674;13.074;2022-10-28T02:55:01;16.02;;;8.40;;
20232;SDS011;37438;55.674;13.074;2022-10-28T02:58:08;15.88;;;8.02;;
20232;SDS011;37438;55.674;13.074;2022-10-28T03:01:13;12.77;;;7.90;;
20232;SDS011;37438;55.674;13.074;2022-10-28T03:04:18;18.92;;;8.85;;
20232;SDS011;37438;55.674;13.074;2022-10-28T03:07:22;14.65;;;9.20;;
20232;SDS011;37438;55.674;13.074;2022-10-28T03:10:27;19.65;;;8.80;;
20232;SDS011;37438;55.674;13.074;2022-10-28T03:13:31;16.05;;;8.40;;
20232;SDS011;37438;55.674;13.074;2022-10-28T03:16:35;17.13;;;8.18;;
20232;SDS011;37438;55.674;13.074;2022-10-28T03:19:40;19.20;;;8.25;;
20232;SDS011;37438;55.674;13.074;2022-10-28T03:22:44;13.07;;;8.75;;
20232;SDS011;37438;55.674;13.074;2022-10-28T03:25:49;16.58;;;8.90;;
20232;SDS011;37438;55.674;13.074;2022-10-28T03:28:53;13.80;;;8.40;;
20232;SDS011;37438;55.674;13.074;2022-10-28T03:31:57;21.48;;;9.15;;
20232;SDS011;37438;55.674;13.074;2022-10-28T03:35:02;19.88;;;9.75;;
20232;SDS011;37438;55.674;13.074;2022-10-28T03:38:07;16.20;;;8.73;;
20232;SDS011;37438;55.674;13.074;2022-10-28T03:41:11;20.55;;;9.05;;
20232;SDS011;37438;55.674;13.074;2022-10-28T03:44:16;13.60;;;8.05;;
20232;SDS011;37438;55.674;13.074;2022-10-28T03:47:20;12.82;;;8.73;;
20232;SDS011;37438;55.674;13.074;2022-10-28T03:50:24;14.90;;;9.10;;
20232;SDS011;37438;55.674;13.074;2022-10-28T03:53:29;14.77;;;8.65;;
20232;SDS011;37438;55.674;13.074;2022-10-28T03:56:34;19.05;;;9.88;;
20232;SDS011;37438;55.674;13.074;2022-10-28T03:59:38;13.90;;;9.43;;
20232;SDS011;37438;55.674;13.074;2022-10-28T04:02:48;13.50;;;9.23;;
20232;SDS011;37438;55.674;13.074;2022-10-28T04:05:53;16.83;;;9.50;;
20232;SDS011;37438;55.674;13.074;2022-10-28T04:08:58;14.35;;;10.07;;
20232;SDS011;37438;55.674;13.074;2022-10-28T04:12:02;15.77;;;9.95;;
20232;SDS011;37438;55.674;13.074;2022-10-28T04:15:11;21.25;;;11.23;;
20232;SDS011;37438;55.674;13.074;2022-10-28T04:18:16;20.98;;;11.63;;
20232;SDS011;37438;55.674;13.074;2022-10-28T04:21:20;18.65;;;10.18;;
20232;SDS011;37438;55.674;13.074;2022-10-28T04:24:25;14.45;;;8.90;;
20232;SDS011;37438;55.674;13.074;2022-10-28T04:27:29;23.80;;;10.95;;
20232;SDS011;37438;55.674;13.074;2022-10-28T04:30:34;25.70;;;11.93;;
20232;SDS011;37438;55.674;13.074;2022-10-28T04:33:38;19.52;;;10.68;;
20232;SDS011;37438;55.674;13.074;2022-10-28T04:36:42;21.00;;;11.00;;
20232;SDS011;37438;55.674;13.074;2022-10-28T04:39:47;15.23;;;10.00;;
20232;SDS011;37438;55.674;13.074;2022-10-28T04:42:52;18.33;;;10.88;;
20232;SDS011;37438;55.674;13.074;2022-10-28T04:45:57;18.10;;;10.43;;
20232;SDS011;37438;55.674;13.074;2022-10-28T04:49:05;20.63;;;11.15;;
20232;SDS011;37438;55.674;13.074;2022-10-28T04:52:09;18.33;;;11.10;;
20232;SDS011;37438;55.674;13.074;2022-10-28T04:55:18;17.88;;;11.05;;
20232;SDS011;37438;55.674;13.074;2022-10-28T04:58:24;20.02;;;11.30;;
20232;SDS011;37438;55.674;13.074;2022-10-28T05:01:29;21.77;;;11.77;;
20232;SDS011;37438;55.674;13.074;2022-10-28T05:04:33;20.60;;;11.45;;
20232;SDS011;37438;55.674;13.074;2022-10-28T05:07:38;22.10;;;11.68;;
20232;SDS011;37438;55.674;13.074;2022-10-28T05:10:42;20.48;;;11.77;;
20232;SDS011;37438;55.674;13.074;2022-10-28T05:13:48;24.90;;;11.82;;
20232;SDS011;37438;55.674;13.074;2022-10-28T05:16:52;19.33;;;11.02;;
20232;SDS011;37438;55.674;13.074;2022-10-28T05:23:01;24.60;;;11.83;;
20232;SDS011;37438;55.674;13.074;2022-10-28T05:26:06;24.52;;;12.68;;
20232;SDS011;37438;55.674;13.074;2022-10-28T05:29:10;45.20;;;13.18;;
20232;SDS011;37438;55.674;13.074;2022-10-28T05:32:15;21.88;;;12.18;;
20232;SDS011;37438;55.674;13.074;2022-10-28T05:35:19;19.90;;;13.07;;
20232;SDS011;37438;55.674;13.074;2022-10-28T05:38:23;22.40;;;12.93;;
20232;SDS011;37438;55.674;13.074;2022-10-28T05:41:29;24.38;;;12.57;;
20232;SDS011;37438;55.674;13.074;2022-10-28T05:44:37;27.38;;;14.05;;
20232;SDS011;37438;55.674;13.074;2022-10-28T05:47:45;23.15;;;10.68;;
20232;SDS011;37438;55.674;13.074;2022-10-28T05:50:50;23.48;;;13.68;;
20232;SDS011;37438;55.674;13.074;2022-10-28T05:53:55;21.30;;;13.45;;
20232;SDS011;37438;55.674;13.074;2022-10-28T05:56:59;26.77;;;13.70;;
20232;SDS011;37438;55.674;13.074;2022-10-28T06:00:04;25.23;;;13.32;;
20232;SDS011;37438;55.674;13.074;2022-10-28T06:03:15;29.65;;;13.00;;
20232;SDS011;37438;55.674;13.074;2022-10-28T06:06:19;22.65;;;12.57;;
20232;SDS011;37438;55.674;13.074;2022-10-28T06:09:25;28.88;;;12.73;;
20232;SDS011;37438;55.674;13.074;2022-10-28T06:12:31;34.38;;;13.90;;
20232;SDS011;37438;55.674;13.074;2022-10-28T06:15:35;28.75;;;14.45;;
20232;SDS011;37438;55.674;13.074;2022-10-28T06:18:40;26.50;;;14.38;;
20232;SDS011;37438;55.674;13.074;2022-10-28T06:21:44;28.20;;;15.13;;
20232;SDS011;37438;55.674;13.074;2022-10-28T06:24:48;24.77;;;13.50;;
20232;SDS011;37438;55.674;13.074;2022-10-28T06:27:57;24.23;;;15.10;;
20232;SDS011;37438;55.674;13.074;2022-10-28T06:31:03;28.95;;;15.02;;
20232;SDS011;37438;55.674;13.074;2022-10-28T06:34:09;28.92;;;15.20;;
20232;SDS011;37438;55.674;13.074;2022-10-28T06:37:14;26.83;;;14.68;;
20232;SDS011;37438;55.674;13.074;2022-10-28T06:40:18;25.63;;;15.65;;
20232;SDS011;37438;55.674;13.074;2022-10-28T06:43:23;29.13;;;15.35;;
20232;SDS011;37438;55.674;13.074;2022-10-28T06:46:27;37.35;;;16.55;;
20232;SDS011;37438;55.674;13.074;2022-10-28T06:49:32;37.60;;;16.60;;
20232;SDS011;37438;55.674;13.074;2022-10-28T06:52:36;32.53;;;15.18;;
20232;SDS011;37438;55.674;13.074;2022-10-28T06:55:40;24.15;;;12.50;;
20232;SDS011;37438;55.674;13.074;2022-10-28T06:58:48;36.28;;;15.98;;
20232;SDS011;37438;55.674;13.074;2022-10-28T07:01:54;30.85;;;16.02;;
20232;SDS011;37438;55.674;13.074;2022-10-28T07:04:58;27.02;;;15.10;;
20232;SDS011;37438;55.674;13.074;2022-10-28T07:08:03;34.72;;;15.90;;
20232;SDS011;37438;55.674;13.074;2022-10-28T07:11:08;32.83;;;16.45;;
20232;SDS011;37438;55.674;13.074;2022-10-28T07:14:12;41.72;;;17.67;;
20232;SDS011;37438;55.674;13.074;2022-10-28T07:17:17;42.05;;;17.50;;
20232;SDS011;37438;55.674;13.074;2022-10-28T07:20:21;30.10;;;16.27;;
20232;SDS011;37438;55.674;13.074;2022-10-28T07:23:27;38.08;;;16.65;;
20232;SDS011;37438;55.674;13.074;2022-10-28T07:26:35;32.38;;;16.98;;
20232;SDS011;37438;55.674;13.074;2022-10-28T07:29:39;32.33;;;17.33;;
20232;SDS011;37438;55.674;13.074;2022-10-28T07:32:44;33.25;;;17.80;;
20232;SDS011;37438;55.674;13.074;2022-10-28T07:35:48;39.65;;;17.70;;
20232;SDS011;37438;55.674;13.074;2022-10-28T07:38:52;30.55;;;15.80;;
20232;SDS011;37438;55.674;13.074;2022-10-28T07:41:57;27.95;;;16.35;;
20232;SDS011;37438;55.674;13.074;2022-10-28T07:45:03;34.55;;;16.65;;
20232;SDS011;37438;55.674;13.074;2022-10-28T07:48:08;29.65;;;15.35;;
20232;SDS011;37438;55.674;13.074;2022-10-28T07:51:13;32.38;;;15.40;;
20232;SDS011;37438;55.674;13.074;2022-10-28T07:54:18;27.80;;;14.50;;
20232;SDS011;37438;55.674;13.074;2022-10-28T07:57:22;26.60;;;13.10;;
20232;SDS011;37438;55.674;13.074;2022-10-28T08:00:27;20.13;;;12.63;;
20232;SDS011;37438;55.674;13.074;2022-10-28T08:03:31;19.35;;;11.35;;
20232;SDS011;37438;55.674;13.074;2022-10-28T08:06:41;24.35;;;13.70;;
20232;SDS011;37438;55.674;13.074;2022-10-28T08:09:47;21.63;;;12.48;;
20232;SDS011;37438;55.674;13.074;2022-10-28T08:12:51;23.67;;;12.13;;
20232;SDS011;37438;55.674;13.074;2022-10-28T08:15:58;17.90;;;10.48;;
20232;SDS011;37438;55.674;13.074;2022-10-28T08:19:03;27.85;;;13.43;;
20232;SDS011;37438;55.674;13.074;2022-10-28T08:22:10;19.10;;;10.23;;
20232;SDS011;37438;55.674;13.074;2022-10-28T08:25:15;14.65;;;10.07;;
20232;SDS011;37438;55.674;13.074;2022-10-28T08:28:19;15.90;;;11.82;;
20232;SDS011;37438;55.674;13.074;2022-10-28T08:31:24;20.73;;;11.65;;
20232;SDS011;37438;55.674;13.074;2022-10-28T08:34:28;21.63;;;10.25;;
20232;SDS011;37438;55.674;13.074;2022-10-28T08:37:34;20.23;;;11.45;;
20232;SDS011;37438;55.674;13.074;2022-10-28T08:40:50;19.67;;;10.93;;
20232;SDS011;37438;55.674;13.074;2022-10-28T08:48:08;18.17;;;10.73;;
20232;SDS011;37438;55.674;13.074;2022-10-28T08:50:49;18.55;;;10.93;;
20232;SDS011;37438;55.674;13.074;2022-10-28T08:53:58;22.58;;;10.20;;
20232;SDS011;37438;55.674;13.074;2022-10-28T08:57:09;16.15;;;11.05;;
20232;SDS011;37438;55.674;13.074;2022-10-28T09:00:24;19.58;;;9.93;;
20232;SDS011;37438;55.674;13.074;2022-10-28T09:03:32;22.50;;;10.48;;
20232;SDS011;37438;55.674;13.074;2022-10-28T09:06:42;22.00;;;11.05;;
20232;SDS011;37438;55.674;13.074;2022-10-28T09:09:46;16.63;;;9.88;;
20232;SDS011;37438;55.674;13.074;2022-10-28T09:13:14;23.33;;;9.50;;
20232;SDS011;37438;55.674;13.074;2022-10-28T09:20:14;21.67;;;8.80;;
20232;SDS011;37438;55.674;13.074;2022-10-28T09:33:29;22.30;;;9.40;;
20232;SDS011;37438;55.674;13.074;2022-10-28T09:36:40;21.00;;;9.82;;
20232;SDS011;37438;55.674;13.074;2022-10-28T09:39:54;21.95;;;10.85;;
20232;SDS011;37438;55.674;13.074;2022-10-28T09:43:06;18.38;;;9.38;;
20232;SDS011;37438;55.674;13.074;2022-10-28T09:46:25;21.67;;;10.23;;
20232;SDS011;37438;55.674;13.074;2022-10-28T09:49:39;21.48;;;9.52;;
20232;SDS011;37438;55.674;13.074;2022-10-28T09:56:07;19.30;;;10.55;;
20232;SDS011;37438;55.674;13.074;2022-10-28T09:59:13;19.83;;;9.20;;
20232;SDS011;37438;55.674;13.074;2022-10-28T10:05:31;20.55;;;9.45;;
20232;SDS011;37438;55.674;13.074;2022-10-28T10:08:40;25.08;;;10.80;;
20232;SDS011;37438;55.674;13.074;2022-10-28T10:11:45;19.38;;;9.32;;
20232;SDS011;37438;55.674;13.074;2022-10-28T10:14:53;22.17;;;9.75;;
20232;SDS011;37438;55.674;13.074;2022-10-28T10:17:59;19.80;;;8.77;;
20232;SDS011;37438;55.674;13.074;2022-10-28T10:21:05;17.80;;;9.40;;
20232;SDS011;37438;55.674;13.074;2022-10-28T10:27:33;14.80;;;9.05;;
20232;SDS011;37438;55.674;13.074;2022-10-28T10:30:39;18.55;;;9.43;;
20232;SDS011;37438;55.674;13.074;2022-10-28T10:33:51;26.33;;;10.10;;
20232;SDS011;37438;55.674;13.074;2022-10-28T10:36:58;16.85;;;10.15;;
20232;SDS011;37438;55.674;13.074;2022-10-28T10:43:28;21.67;;;9.80;;
20232;SDS011;37438;55.674;13.074;2022-10-28T10:49:39;21.60;;;8.70;;
20232;SDS011;37438;55.674;13.074;2022-10-28T10:52:47;21.23;;;9.95;;
20232;SDS011;37438;55.674;13.074;2022-10-28T10:56:02;13.43;;;7.38;;
20232;SDS011;37438;55.674;13.074;2022-10-28T11:02:31;20.92;;;9.05;;
20232;SDS011;37438;55.674;13.074;2022-10-28T11:05:46;19.67;;;9.43;;
20232;SDS011;37438;55.674;13.074;2022-10-28T11:09:18;18.50;;;9.60;;
20232;SDS011;37438;55.674;13.074;2022-10-28T11:12:35;17.92;;;9.20;;
20232;SDS011;37438;55.674;13.074;2022-10-28T11:15:39;20.65;;;7.95;;
20232;SDS011;37438;55.674;13.074;2022-10-28T11:18:45;19.67;;;8.93;;
20232;SDS011;37438;55.674;13.074;2022-10-28T11:25:34;22.33;;;9.10;;
20232;SDS011;37438;55.674;13.074;2022-10-28T11:35:07;27.17;;;7.53;;
20232;SDS011;37438;55.674;13.074;2022-10-28T11:51:42;14.20;;;7.95;;
20232;SDS011;37438;55.674;13.074;2022-10-28T11:58:44;16.05;;;8.00;;
20232;SDS011;37438;55.674;13.074;2022-10-28T12:02:01;14.10;;;7.22;;
20232;SDS011;37438;55.674;13.074;2022-10-28T12:15:54;14.90;;;6.70;;
20232;SDS011;37438;55.674;13.074;2022-10-28T12:19:14;13.93;;;7.25;;
20232;SDS011;37438;55.674;13.074;2022-10-28T12:28:47;22.15;;;8.13;;
20232;SDS011;37438;55.674;13.074;2022-10-28T12:32:10;18.00;;;6.13;;
20232;SDS011;37438;55.674;13.074;2022-10-28T12:35:24;16.48;;;8.18;;
20232;SDS011;37438;55.674;13.074;2022-10-28T12:38:36;15.15;;;7.05;;
20232;SDS011;37438;55.674;13.074;2022-10-28T12:42:31;14.40;;;6.20;;
20232;SDS011;37438;55.674;13.074;2022-10-28T12:45:17;19.85;;;7.80;;
20232;SDS011;37438;55.674;13.074;2022-10-28T12:48:39;24.05;;;9.32;;
20232;SDS011;37438;55.674;13.074;2022-10-28T12:51:49;16.10;;;8.82;;
20232;SDS011;37438;55.674;13.074;2022-10-28T12:55:02;21.85;;;8.93;;
20232;SDS011;37438;55.674;13.074;2022-10-28T13:01:34;20.85;;;8.70;;
20232;SDS011;37438;55.674;13.074;2022-10-28T13:04:39;20.40;;;9.05;;
20232;SDS011;37438;55.674;13.074;2022-10-28T13:07:53;17.80;;;7.70;;
20232;SDS011;37438;55.674;13.074;2022-10-28T13:28:44;20.42;;;8.73;;
20232;SDS011;37438;55.674;13.074;2022-10-28T13:31:51;22.60;;;8.43;;
20232;SDS011;37438;55.674;13.074;2022-10-28T13:34:57;18.27;;;9.07;;
20232;SDS011;37438;55.674;13.074;2022-10-28T13:38:03;20.98;;;9.30;;
20232;SDS011;37438;55.674;13.074;2022-10-28T13:41:24;17.08;;;9.27;;
20232;SDS011;37438;55.674;13.074;2022-10-28T13:44:30;16.17;;;8.65;;
20232;SDS011;37438;55.674;13.074;2022-10-28T13:47:49;18.77;;;8.45;;
20232;SDS011;37438;55.674;13.074;2022-10-28T13:54:23;22.08;;;9.00;;
20232;SDS011;37438;55.674;13.074;2022-10-28T13:57:30;25.00;;;10.07;;
20232;SDS011;37438;55.674;13.074;2022-10-28T14:00:40;17.08;;;8.88;;
20232;SDS011;37438;55.674;13.074;2022-10-28T14:03:48;19.33;;;8.45;;
20232;SDS011;37438;55.674;13.074;2022-10-28T14:10:21;21.10;;;8.98;;
20232;SDS011;37438;55.674;13.074;2022-10-28T14:13:46;16.30;;;8.75;;
20232;SDS011;37438;55.674;13.074;2022-10-28T14:17:22;15.60;;;8.63;;
20232;SDS011;37438;55.674;13.074;2022-10-28T14:20:31;18.25;;;9.43;;
20232;SDS011;37438;55.674;13.074;2022-10-28T14:30:11;13.85;;;9.05;;
20232;SDS011;37438;55.674;13.074;2022-10-28T14:33:18;18.30;;;8.27;;
20232;SDS011;37438;55.674;13.074;2022-10-28T14:36:28;14.60;;;7.47;;
20232;SDS011;37438;55.674;13.074;2022-10-28T14:39:43;18.05;;;8.05;;
20232;SDS011;37438;55.674;13.074;2022-10-28T14:53:25;23.25;;;9.38;;
20232;SDS011;37438;55.674;13.074;2022-10-28T14:56:38;18.23;;;8.35;;
20232;SDS011;37438;55.674;13.074;2022-10-28T14:59:43;16.90;;;8.80;;
20232;SDS011;37438;55.674;13.074;2022-10-28T15:02:49;12.93;;;7.90;;
20232;SDS011;37438;55.674;13.074;2022-10-28T15:05:54;24.08;;;9.00;;
20232;SDS011;37438;55.674;13.074;2022-10-28T15:09:03;20.83;;;8.55;;
20232;SDS011;37438;55.674;13.074;2022-10-28T15:12:13;17.02;;;8.60;;
20232;SDS011;37438;55.674;13.074;2022-10-28T15:15:23;21.42;;;10.55;;
20232;SDS011;37438;55.674;13.074;2022-10-28T15:18:29;23.55;;;10.00;;
20232;SDS011;37438;55.674;13.074;2022-10-28T15:21:33;25.30;;;12.15;;
20232;SDS011;37438;55.674;13.074;2022-10-28T15:24:38;21.60;;;11.30;;
20232;SDS011;37438;55.674;13.074;2022-10-28T15:27:49;17.67;;;9.50;;
20232;SDS011;37438;55.674;13.074;2022-10-28T15:30:55;27.55;;;11.23;;
20232;SDS011;37438;55.674;13.074;2022-10-28T15:37:04;19.08;;;9.45;;
20232;SDS011;37438;55.674;13.074;2022-10-28T15:40:43;11.80;;;8.00;;
20232;SDS011;37438;55.674;13.074;2022-10-28T15:43:42;15.73;;;8.52;;
20232;SDS011;37438;55.674;13.074;2022-10-28T15:47:03;13.63;;;7.28;;
20232;SDS011;37438;55.674;13.074;2022-10-28T15:50:21;15.75;;;6.57;;
20232;SDS011;37438;55.674;13.074;2022-10-28T15:53:43;16.30;;;8.40;;
20232;SDS011;37438;55.674;13.074;2022-10-28T15:56:57;13.77;;;8.02;;
20232;SDS011;37438;55.674;13.074;2022-10-28T16:00:36;14.93;;;7.15;;
20232;SDS011;37438;55.674;13.074;2022-10-28T16:03:47;18.13;;;6.70;;
20232;SDS011;37438;55.674;13.074;2022-10-28T16:06:55;17.05;;;6.47;;
20232;SDS011;37438;55.674;13.074;2022-10-28T16:10:00;16.50;;;6.95;;
20232;SDS011;37438;55.674;13.074;2022-10-28T16:13:05;11.98;;;6.40;;
20232;SDS011;37438;55.674;13.074;2022-10-28T16:16:15;15.23;;;7.50;;
20232;SDS011;37438;55.674;13.074;2022-10-28T16:19:33;18.15;;;7.22;;
20232;SDS011;37438;55.674;13.074;2022-10-28T16:22:40;11.70;;;6.30;;
20232;SDS011;37438;55.674;13.074;2022-10-28T16:25:45;14.27;;;8.35;;
20232;SDS011;37438;55.674;13.074;2022-10-28T16:28:49;16.80;;;8.35;;
20232;SDS011;37438;55.674;13.074;2022-10-28T16:31:54;19.25;;;7.15;;
20232;SDS011;37438;55.674;13.074;2022-10-28T16:34:59;12.68;;;7.50;;
20232;SDS011;37438;55.674;13.074;2022-10-28T16:38:07;18.00;;;7.30;;
20232;SDS011;37438;55.674;13.074;2022-10-28T16:41:17;22.58;;;8.65;;
20232;SDS011;37438;55.674;13.074;2022-10-28T16:44:22;11.85;;;6.88;;
20232;SDS011;37438;55.674;13.074;2022-10-28T16:47:28;12.55;;;7.20;;
20232;SDS011;37438;55.674;13.074;2022-10-28T16:50:33;14.60;;;7.50;;
20232;SDS011;37438;55.674;13.074;2022-10-28T16:53:37;17.00;;;7.78;;
20232;SDS011;37438;55.674;13.074;2022-10-28T16:56:42;18.98;;;7.80;;
20232;SDS011;37438;55.674;13.074;2022-10-28T16:59:46;16.52;;;7.38;;
20232;SDS011;37438;55.674;13.074;2022-10-28T17:02:51;14.32;;;7.65;;
20232;SDS011;37438;55.674;13.074;2022-10-28T17:05:57;15.18;;;8.88;;
20232;SDS011;37438;55.674;13.074;2022-10-28T17:09:01;22.17;;;8.77;;
20232;SDS011;37438;55.674;13.074;2022-10-28T17:12:09;20.42;;;8.70;;
20232;SDS011;37438;55.674;13.074;2022-10-28T17:15:17;19.33;;;8.05;;
20232;SDS011;37438;55.674;13.074;2022-10-28T17:18:21;19.80;;;8.32;;
20232;SDS011;37438;55.674;13.074;2022-10-28T17:21:26;16.20;;;8.15;;
20232;SDS011;37438;55.674;13.074;2022-10-28T17:24:30;14.18;;;7.68;;
20232;SDS011;37438;55.674;13.074;2022-10-28T17:27:35;15.85;;;9.00;;
20232;SDS011;37438;55.674;13.074;2022-10-28T17:30:39;12.98;;;8.18;;
20232;SDS011;37438;55.674;13.074;2022-10-28T17:33:44;20.65;;;8.48;;
20232;SDS011;37438;55.674;13.074;2022-10-28T17:36:48;28.23;;;8.85;;
20232;SDS011;37438;55.674;13.074;2022-10-28T17:39:53;13.25;;;7.88;;
20232;SDS011;37438;55.674;13.074;2022-10-28T17:42:58;15.50;;;9.38;;
20232;SDS011;37438;55.674;13.074;2022-10-28T17:46:03;13.88;;;9.18;;
20232;SDS011;37438;55.674;13.074;2022-10-28T17:49:09;18.98;;;9.07;;
20232;SDS011;37438;55.674;13.074;2022-10-28T17:52:14;24.15;;;8.93;;
20232;SDS011;37438;55.674;13.074;2022-10-28T17:55:18;19.67;;;7.90;;
20232;SDS011;37438;55.674;13.074;2022-10-28T17:58:23;17.65;;;8.75;;
20232;SDS011;37438;55.674;13.074;2022-10-28T18:01:28;18.00;;;8.80;;
20232;SDS011;37438;55.674;13.074;2022-10-28T18:04:33;20.45;;;9.73;;
20232;SDS011;37438;55.674;13.074;2022-10-28T18:07:38;29.02;;;10.15;;
20232;SDS011;37438;55.674;13.074;2022-10-28T18:10:50;25.08;;;10.43;;
20232;SDS011;37438;55.674;13.074;2022-10-28T18:13:55;17.10;;;10.05;;
20232;SDS011;37438;55.674;13.074;2022-10-28T18:16:59;24.85;;;12.38;;
20232;SDS011;37438;55.674;13.074;2022-10-28T18:20:04;27.55;;;10.80;;
20232;SDS011;37438;55.674;13.074;2022-10-28T18:23:09;20.60;;;10.07;;
20232;SDS011;37438;55.674;13.074;2022-10-28T18:26:14;19.58;;;10.20;;
20232;SDS011;37438;55.674;13.074;2022-10-28T18:29:18;16.08;;;9.77;;
20232;SDS011;37438;55.674;13.074;2022-10-28T18:32:23;19.00;;;9.93;;
20232;SDS011;37438;55.674;13.074;2022-10-28T18:35:27;22.63;;;10.55;;
20232;SDS011;37438;55.674;13.074;2022-10-28T18:38:33;19.73;;;10.90;;
20232;SDS011;37438;55.674;13.074;2022-10-28T18:41:37;28.13;;;10.32;;
20232;SDS011;37438;55.674;13.074;2022-10-28T18:44:45;24.42;;;10.30;;
20232;SDS011;37438;55.674;13.074;2022-10-28T18:47:49;20.35;;;7.50;;
20232;SDS011;37438;55.674;13.074;2022-10-28T18:50:58;15.52;;;9.50;;
20232;SDS011;37438;55.674;13.074;2022-10-28T18:54:04;34.00;;;9.95;;
20232;SDS011;37438;55.674;13.074;2022-10-28T18:57:08;30.60;;;9.20;;
20232;SDS011;37438;55.674;13.074;2022-10-28T19:00:13;18.80;;;9.85;;
20232;SDS011;37438;55.674;13.074;2022-10-28T19:03:22;16.85;;;9.27;;
20232;SDS011;37438;55.674;13.074;2022-10-28T19:06:28;20.73;;;10.02;;
20232;SDS011;37438;55.674;13.074;2022-10-28T19:09:36;18.05;;;10.35;;
20232;SDS011;37438;55.674;13.074;2022-10-28T19:12:40;22.50;;;10.27;;
20232;SDS011;37438;55.674;13.074;2022-10-28T19:15:50;21.95;;;10.25;;
20232;SDS011;37438;55.674;13.074;2022-10-28T19:22:00;15.80;;;9.00;;
20232;SDS011;37438;55.674;13.074;2022-10-28T19:25:05;15.82;;;9.13;;
20232;SDS011;37438;55.674;13.074;2022-10-28T19:28:09;20.90;;;10.48;;
20232;SDS011;37438;55.674;13.074;2022-10-28T19:31:18;21.95;;;10.98;;
20232;SDS011;37438;55.674;13.074;2022-10-28T19:34:25;18.48;;;9.40;;
20232;SDS011;37438;55.674;13.074;2022-10-28T19:37:30;23.05;;;10.68;;
20232;SDS011;37438;55.674;13.074;2022-10-28T19:40:35;17.10;;;9.30;;
20232;SDS011;37438;55.674;13.074;2022-10-28T19:43:40;23.60;;;10.02;;
20232;SDS011;37438;55.674;13.074;2022-10-28T19:46:44;27.20;;;10.70;;
20232;SDS011;37438;55.674;13.074;2022-10-28T19:49:49;13.93;;;9.32;;
20232;SDS011;37438;55.674;13.074;2022-10-28T19:52:53;22.00;;;10.05;;
20232;SDS011;37438;55.674;13.074;2022-10-28T19:55:59;21.98;;;10.13;;
20232;SDS011;37438;55.674;13.074;2022-10-28T19:59:05;25.40;;;9.73;;
20232;SDS011;37438;55.674;13.074;2022-10-28T20:02:10;23.70;;;10.68;;
20232;SDS011;37438;55.674;13.074;2022-10-28T20:05:15;18.45;;;10.35;;
20232;SDS011;37438;55.674;13.074;2022-10-28T20:08:19;17.63;;;9.95;;
20232;SDS011;37438;55.674;13.074;2022-10-28T20:11:25;27.45;;;11.00;;
20232;SDS011;37438;55.674;13.074;2022-10-28T20:14:34;34.38;;;11.20;;
20232;SDS011;37438;55.674;13.074;2022-10-28T20:17:38;29.75;;;11.32;;
20232;SDS011;37438;55.674;13.074;2022-10-28T20:20:43;21.08;;;11.70;;
20232;SDS011;37438;55.674;13.074;2022-10-28T20:23:48;23.27;;;10.27;;
20232;SDS011;37438;55.674;13.074;2022-10-28T20:26:57;17.73;;;8.85;;
20232;SDS011;37438;55.674;13.074;2022-10-28T20:30:01;21.50;;;9.05;;
20232;SDS011;37438;55.674;13.074;2022-10-28T20:33:06;21.95;;;8.50;;
20232;SDS011;37438;55.674;13.074;2022-10-28T20:36:24;15.90;;;8.48;;
20232;SDS011;37438;55.674;13.074;2022-10-28T20:39:30;19.85;;;10.15;;
20232;SDS011;37438;55.674;13.074;2022-10-28T20:42:35;17.88;;;10.23;;
20232;SDS011;37438;55.674;13.074;2022-10-28T20:45:39;26.55;;;8.60;;
20232;SDS011;37438;55.674;13.074;2022-10-28T20:48:44;19.75;;;8.88;;
20232;SDS011;37438;55.674;13.074;2022-10-28T20:51:48;24.85;;;10.05;;
20232;SDS011;37438;55.674;13.074;2022-10-28T20:54:53;34.60;;;9.85;;
20232;SDS011;37438;55.674;13.074;2022-10-28T20:57:57;15.07;;;9.07;;
20232;SDS011;37438;55.674;13.074;2022-10-28T21:01:06;21.58;;;9.70;;
20232;SDS011;37438;55.674;13.074;2022-10-28T21:04:15;18.90;;;8.73;;
20232;SDS011;37438;55.674;13.074;2022-10-28T21:07:19;17.83;;;9.15;;